sensor_id;sensor_type;location;lat;lon;timestamp;temperature;humidity
27026;DHT22;14565;48.626;8.978;2022-12-11T00:00:17;-3.40;99.90
27026;DHT22;14565;48.626;8.978;2022-12-11T00:02:42;-3.40;99.90
27026;DHT22;14565;48.626;8.978;2022-12-11T00:05:08;-3.40;99.90
27026;DHT22;14565;48.626;8.978;2022-12-11T00:07:34;-3.40;99.90
27026;DHT22;14565;48.626;8.978;2022-12-11T00:10:00;-3.40;99.90
27026;DHT22;14565;48.626;8.978;2022-12-11T00:12:25;-3.40;99.90
27026;DHT22;14565;48.626;8.978;2022-12-11T00:14:51;-3.40;99.90
27026;DHT22;14565;48.626;8.978;2022-12-11T00:17:17;-3.50;99.90
27026;DHT22;14565;48.626;8.978;2022-12-11T00:19:42;-3.50;99.90
27026;DHT22;14565;48.626;8.978;2022-12-11T00:22:08;-3.60;99.90
27026;DHT22;14565;48.626;8.978;2022-12-11T00:24:34;-3.60;99.90
27026;DHT22;14565;48.626;8.978;2022-12-11T00:26:59;-3.70;99.90
27026;DHT22;14565;48.626;8.978;2022-12-11T00:29:25;-3.70;99.90
27026;DHT22;14565;48.626;8.978;2022-12-11T00:31:51;-3.60;99.90
27026;DHT22;14565;48.626;8.978;2022-12-11T00:34:16;-3.70;99.90
27026;DHT22;14565;48.626;8.978;2022-12-11T00:36:42;-3.70;99.90
27026;DHT22;14565;48.626;8.978;2022-12-11T00:39:08;-4.00;99.90
27026;DHT22;14565;48.626;8.978;2022-12-11T00:41:33;-4.00;99.90
27026;DHT22;14565;48.626;8.978;2022-12-11T00:43:59;-4.00;99.90
27026;DHT22;14565;48.626;8.978;2022-12-11T00:46:25;-4.00;99.90
27026;DHT22;14565;48.626;8.978;2022-12-11T00:48:50;-4.00;99.90
27026;DHT22;14565;48.626;8.978;2022-12-11T00:51:21;-4.10;99.90
27026;DHT22;14565;48.626;8.978;2022-12-11T00:53:47;-4.10;99.90
27026;DHT22;14565;48.626;8.978;2022-12-11T00:56:16;-4.10;99.90
27026;DHT22;14565;48.626;8.978;2022-12-11T00:58:42;-4.00;99.90
27026;DHT22;14565;48.626;8.978;2022-12-11T01:01:11;-4.00;99.90
27026;DHT22;14565;48.626;8.978;2022-12-11T01:03:37;-3.90;99.90
27026;DHT22;14565;48.626;8.978;2022-12-11T01:06:03;-3.80;99.90
27026;DHT22;14565;48.626;8.978;2022-12-11T01:08:29;-3.70;99.90
27026;DHT22;14565;48.626;8.978;2022-12-11T01:11:06;-3.50;99.90
27026;DHT22;14565;48.626;8.978;2022-12-11T01:13:33;-3.40;99.90
27026;DHT22;14565;48.626;8.978;2022-12-11T01:15:59;-3.30;99.90
27026;DHT22;14565;48.626;8.978;2022-12-11T01:18:29;-3.40;99.90
27026;DHT22;14565;48.626;8.978;2022-12-11T01:20:55;-3.30;99.90
27026;DHT22;14565;48.626;8.978;2022-12-11T01:23:21;-3.30;99.90
27026;DHT22;14565;48.626;8.978;2022-12-11T01:25:46;-3.20;99.90
27026;DHT22;14565;48.626;8.978;2022-12-11T01:28:12;-3.10;99.90
27026;DHT22;14565;48.626;8.978;2022-12-11T01:30:41;-3.10;99.90
27026;DHT22;14565;48.626;8.978;2022-12-11T01:33:07;-3.20;99.90
27026;DHT22;14565;48.626;8.978;2022-12-11T01:35:32;-3.10;99.90
27026;DHT22;14565;48.626;8.978;2022-12-11T01:37:58;-3.10;99.90
27026;DHT22;14565;48.626;8.978;2022-12-11T01:40:24;-3.00;99.90
27026;DHT22;14565;48.626;8.978;2022-12-11T01:42:50;-3.00;99.90
27026;DHT22;14565;48.626;8.978;2022-12-11T01:48:03;-2.90;99.90
27026;DHT22;14565;48.626;8.978;2022-12-11T01:50:31;-2.70;99.90
27026;DHT22;14565;48.626;8.978;2022-12-11T01:52:58;-2.70;99.90
27026;DHT22;14565;48.626;8.978;2022-12-11T01:55:24;-2.60;99.90
27026;DHT22;14565;48.626;8.978;2022-12-11T01:57:51;-2.60;99.90
27026;DHT22;14565;48.626;8.978;2022-12-11T02:00:18;-2.60;99.90
27026;DHT22;14565;48.626;8.978;2022-12-11T02:02:44;-2.50;99.90
27026;DHT22;14565;48.626;8.978;2022-12-11T02:05:10;-2.50;99.90
27026;DHT22;14565;48.626;8.978;2022-12-11T02:07:51;-2.40;99.90
27026;DHT22;14565;48.626;8.978;2022-12-11T02:10:18;-2.40;99.90
27026;DHT22;14565;48.626;8.978;2022-12-11T02:12:56;-2.30;99.90
27026;DHT22;14565;48.626;8.978;2022-12-11T02:26:55;-2.50;99.90
27026;DHT22;14565;48.626;8.978;2022-12-11T02:29:35;-2.50;99.90
27026;DHT22;14565;48.626;8.978;2022-12-11T02:32:08;-2.60;99.90
27026;DHT22;14565;48.626;8.978;2022-12-11T02:34:47;-2.40;99.90
27026;DHT22;14565;48.626;8.978;2022-12-11T02:37:18;-2.30;99.90
27026;DHT22;14565;48.626;8.978;2022-12-11T02:39:45;-2.30;99.90
27026;DHT22;14565;48.626;8.978;2022-12-11T02:42:13;-2.30;99.90
27026;DHT22;14565;48.626;8.978;2022-12-11T02:44:41;-2.20;99.90
27026;DHT22;14565;48.626;8.978;2022-12-11T02:47:11;-2.20;99.90
27026;DHT22;14565;48.626;8.978;2022-12-11T02:49:42;-2.10;99.90
27026;DHT22;14565;48.626;8.978;2022-12-11T02:52:10;-2.20;99.90
27026;DHT22;14565;48.626;8.978;2022-12-11T02:54:39;-2.20;99.90
27026;DHT22;14565;48.626;8.978;2022-12-11T02:57:16;-2.20;99.90
27026;DHT22;14565;48.626;8.978;2022-12-11T02:59:44;-2.30;99.90
27026;DHT22;14565;48.626;8.978;2022-12-11T03:02:12;-2.30;99.90
27026;DHT22;14565;48.626;8.978;2022-12-11T03:04:39;-2.40;99.90
27026;DHT22;14565;48.626;8.978;2022-12-11T03:07:20;-2.50;99.90
27026;DHT22;14565;48.626;8.978;2022-12-11T03:09:48;-2.60;99.90
27026;DHT22;14565;48.626;8.978;2022-12-11T03:12:19;-2.70;99.90
27026;DHT22;14565;48.626;8.978;2022-12-11T03:14:45;-2.70;99.90
27026;DHT22;14565;48.626;8.978;2022-12-11T03:17:26;-2.80;99.90
27026;DHT22;14565;48.626;8.978;2022-12-11T03:20:25;-2.80;99.90
27026;DHT22;14565;48.626;8.978;2022-12-11T03:23:19;-2.90;99.90
27026;DHT22;14565;48.626;8.978;2022-12-11T03:25:56;-3.00;99.90
27026;DHT22;14565;48.626;8.978;2022-12-11T03:28:52;-2.90;99.90
27026;DHT22;14565;48.626;8.978;2022-12-11T03:31:28;-2.90;99.90
27026;DHT22;14565;48.626;8.978;2022-12-11T03:33:59;-3.00;99.90
27026;DHT22;14565;48.626;8.978;2022-12-11T03:36:30;-3.10;99.90
27026;DHT22;14565;48.626;8.978;2022-12-11T03:39:00;-3.00;99.90
27026;DHT22;14565;48.626;8.978;2022-12-11T03:41:28;-3.00;99.90
27026;DHT22;14565;48.626;8.978;2022-12-11T03:43:56;-3.10;99.90
27026;DHT22;14565;48.626;8.978;2022-12-11T03:46:26;-3.10;99.90
27026;DHT22;14565;48.626;8.978;2022-12-11T03:48:55;-3.00;99.90
27026;DHT22;14565;48.626;8.978;2022-12-11T03:51:24;-3.00;99.90
27026;DHT22;14565;48.626;8.978;2022-12-11T03:53:51;-2.90;99.90
27026;DHT22;14565;48.626;8.978;2022-12-11T03:56:20;-2.90;99.90
27026;DHT22;14565;48.626;8.978;2022-12-11T03:58:46;-3.00;99.90
27026;DHT22;14565;48.626;8.978;2022-12-11T04:01:12;-2.90;99.90
27026;DHT22;14565;48.626;8.978;2022-12-11T04:03:38;-2.80;99.90
27026;DHT22;14565;48.626;8.978;2022-12-11T04:06:04;-2.90;99.90
27026;DHT22;14565;48.626;8.978;2022-12-11T04:08:29;-2.90;99.90
27026;DHT22;14565;48.626;8.978;2022-12-11T04:10:55;-3.00;99.90
27026;DHT22;14565;48.626;8.978;2022-12-11T04:13:40;-2.90;99.90
27026;DHT22;14565;48.626;8.978;2022-12-11T04:16:06;-2.90;99.90
27026;DHT22;14565;48.626;8.978;2022-12-11T04:18:32;-2.90;99.90
27026;DHT22;14565;48.626;8.978;2022-12-11T04:21:16;-2.90;99.90
27026;DHT22;14565;48.626;8.978;2022-12-11T04:24:00;-2.80;99.90
27026;DHT22;14565;48.626;8.978;2022-12-11T04:26:45;-2.70;99.90
27026;DHT22;14565;48.626;8.978;2022-12-11T04:29:12;-2.60;99.90
27026;DHT22;14565;48.626;8.978;2022-12-11T04:31:38;-2.70;99.90
27026;DHT22;14565;48.626;8.978;2022-12-11T04:34:04;-2.70;99.90
27026;DHT22;14565;48.626;8.978;2022-12-11T04:36:30;-2.70;99.90
27026;DHT22;14565;48.626;8.978;2022-12-11T04:38:55;-2.70;99.90
27026;DHT22;14565;48.626;8.978;2022-12-11T04:41:21;-2.70;99.90
27026;DHT22;14565;48.626;8.978;2022-12-11T04:43:46;-2.70;99.90
27026;DHT22;14565;48.626;8.978;2022-12-11T04:48:38;-2.60;99.90
27026;DHT22;14565;48.626;8.978;2022-12-11T04:51:04;-2.60;99.90
27026;DHT22;14565;48.626;8.978;2022-12-11T04:53:30;-2.50;99.90
27026;DHT22;14565;48.626;8.978;2022-12-11T04:55:56;-2.50;99.90
27026;DHT22;14565;48.626;8.978;2022-12-11T04:58:23;-2.50;99.90
27026;DHT22;14565;48.626;8.978;2022-12-11T05:00:49;-2.60;99.90
27026;DHT22;14565;48.626;8.978;2022-12-11T05:03:15;-2.50;99.90
27026;DHT22;14565;48.626;8.978;2022-12-11T05:05:46;-2.50;99.90
27026;DHT22;14565;48.626;8.978;2022-12-11T05:08:12;-2.50;99.90
27026;DHT22;14565;48.626;8.978;2022-12-11T05:10:38;-2.60;99.90
27026;DHT22;14565;48.626;8.978;2022-12-11T05:13:03;-2.50;99.90
27026;DHT22;14565;48.626;8.978;2022-12-11T05:15:29;-2.50;99.90
27026;DHT22;14565;48.626;8.978;2022-12-11T05:17:54;-2.50;99.90
27026;DHT22;14565;48.626;8.978;2022-12-11T05:20:20;-2.40;99.90
27026;DHT22;14565;48.626;8.978;2022-12-11T05:22:46;-2.50;99.90
27026;DHT22;14565;48.626;8.978;2022-12-11T05:25:11;-2.60;99.90
27026;DHT22;14565;48.626;8.978;2022-12-11T05:27:37;-2.60;99.90
27026;DHT22;14565;48.626;8.978;2022-12-11T05:30:03;-2.60;99.90
27026;DHT22;14565;48.626;8.978;2022-12-11T05:32:29;-2.70;99.90
27026;DHT22;14565;48.626;8.978;2022-12-11T05:34:54;-2.70;99.90
27026;DHT22;14565;48.626;8.978;2022-12-11T05:37:20;-2.60;99.90
27026;DHT22;14565;48.626;8.978;2022-12-11T05:39:46;-2.70;99.90
27026;DHT22;14565;48.626;8.978;2022-12-11T05:42:11;-2.70;99.90
27026;DHT22;14565;48.626;8.978;2022-12-11T05:44:37;-2.70;99.90
27026;DHT22;14565;48.626;8.978;2022-12-11T05:47:03;-2.80;99.90
27026;DHT22;14565;48.626;8.978;2022-12-11T05:49:28;-2.90;99.90
27026;DHT22;14565;48.626;8.978;2022-12-11T05:51:54;-3.00;99.90
27026;DHT22;14565;48.626;8.978;2022-12-11T05:54:19;-3.10;99.90
27026;DHT22;14565;48.626;8.978;2022-12-11T05:56:45;-3.10;99.90
27026;DHT22;14565;48.626;8.978;2022-12-11T05:59:13;-3.10;99.90
27026;DHT22;14565;48.626;8.978;2022-12-11T06:01:41;-3.20;99.90
27026;DHT22;14565;48.626;8.978;2022-12-11T06:04:07;-3.20;99.90
27026;DHT22;14565;48.626;8.978;2022-12-11T06:06:34;-3.30;99.90
27026;DHT22;14565;48.626;8.978;2022-12-11T06:08:59;-3.30;99.90
27026;DHT22;14565;48.626;8.978;2022-12-11T06:11:28;-3.40;99.90
27026;DHT22;14565;48.626;8.978;2022-12-11T06:13:54;-3.40;99.90
27026;DHT22;14565;48.626;8.978;2022-12-11T06:16:20;-3.40;99.90
27026;DHT22;14565;48.626;8.978;2022-12-11T06:18:46;-3.40;99.90
27026;DHT22;14565;48.626;8.978;2022-12-11T06:21:27;-3.40;99.90
27026;DHT22;14565;48.626;8.978;2022-12-11T06:23:55;-3.50;99.90
27026;DHT22;14565;48.626;8.978;2022-12-11T06:26:21;-3.60;99.90
27026;DHT22;14565;48.626;8.978;2022-12-11T06:28:47;-3.70;99.90
27026;DHT22;14565;48.626;8.978;2022-12-11T06:31:13;-3.70;99.90
27026;DHT22;14565;48.626;8.978;2022-12-11T06:33:39;-3.70;99.90
27026;DHT22;14565;48.626;8.978;2022-12-11T06:36:09;-3.70;99.90
27026;DHT22;14565;48.626;8.978;2022-12-11T06:38:35;-3.70;99.90
27026;DHT22;14565;48.626;8.978;2022-12-11T06:41:03;-3.70;99.90
27026;DHT22;14565;48.626;8.978;2022-12-11T06:43:30;-3.70;99.90
27026;DHT22;14565;48.626;8.978;2022-12-11T06:45:56;-3.80;99.90
27026;DHT22;14565;48.626;8.978;2022-12-11T06:48:22;-3.90;99.90
27026;DHT22;14565;48.626;8.978;2022-12-11T06:50:48;-3.90;99.90
27026;DHT22;14565;48.626;8.978;2022-12-11T06:53:14;-4.00;99.90
27026;DHT22;14565;48.626;8.978;2022-12-11T06:55:41;-3.90;99.90
27026;DHT22;14565;48.626;8.978;2022-12-11T06:58:07;-4.00;99.90
27026;DHT22;14565;48.626;8.978;2022-12-11T07:00:37;-4.00;99.90
27026;DHT22;14565;48.626;8.978;2022-12-11T07:03:03;-4.10;99.90
27026;DHT22;14565;48.626;8.978;2022-12-11T07:05:30;-4.10;99.90
27026;DHT22;14565;48.626;8.978;2022-12-11T07:07:56;-4.10;99.90
27026;DHT22;14565;48.626;8.978;2022-12-11T07:10:22;-4.00;99.90
27026;DHT22;14565;48.626;8.978;2022-12-11T07:12:49;-3.90;99.90
27026;DHT22;14565;48.626;8.978;2022-12-11T07:15:16;-4.00;99.90
27026;DHT22;14565;48.626;8.978;2022-12-11T07:17:42;-3.90;99.90
27026;DHT22;14565;48.626;8.978;2022-12-11T07:20:08;-3.90;99.90
27026;DHT22;14565;48.626;8.978;2022-12-11T07:22:33;-3.90;99.90
27026;DHT22;14565;48.626;8.978;2022-12-11T07:24:59;-3.90;99.90
27026;DHT22;14565;48.626;8.978;2022-12-11T07:27:25;-3.80;99.90
27026;DHT22;14565;48.626;8.978;2022-12-11T07:29:50;-3.80;99.90
27026;DHT22;14565;48.626;8.978;2022-12-11T07:32:16;-3.80;99.90
27026;DHT22;14565;48.626;8.978;2022-12-11T07:34:42;-3.70;99.90
27026;DHT22;14565;48.626;8.978;2022-12-11T07:37:07;-3.60;99.90
27026;DHT22;14565;48.626;8.978;2022-12-11T07:39:33;-3.40;99.90
27026;DHT22;14565;48.626;8.978;2022-12-11T07:41:59;-3.50;99.90
27026;DHT22;14565;48.626;8.978;2022-12-11T07:44:24;-3.40;99.90
27026;DHT22;14565;48.626;8.978;2022-12-11T07:46:50;-3.40;99.90
27026;DHT22;14565;48.626;8.978;2022-12-11T07:49:16;-3.50;99.90
27026;DHT22;14565;48.626;8.978;2022-12-11T07:51:42;-3.50;99.90
27026;DHT22;14565;48.626;8.978;2022-12-11T07:54:11;-3.60;99.90
27026;DHT22;14565;48.626;8.978;2022-12-11T07:56:41;-3.50;99.90
27026;DHT22;14565;48.626;8.978;2022-12-11T07:59:07;-3.50;99.90
27026;DHT22;14565;48.626;8.978;2022-12-11T08:01:34;-3.60;99.90
27026;DHT22;14565;48.626;8.978;2022-12-11T08:04:02;-3.50;99.90
27026;DHT22;14565;48.626;8.978;2022-12-11T08:06:32;-3.50;99.90
27026;DHT22;14565;48.626;8.978;2022-12-11T08:09:01;-3.40;99.90
27026;DHT22;14565;48.626;8.978;2022-12-11T08:11:27;-3.30;99.90
27026;DHT22;14565;48.626;8.978;2022-12-11T08:13:53;-3.10;99.90
27026;DHT22;14565;48.626;8.978;2022-12-11T08:16:19;-3.00;99.90
27026;DHT22;14565;48.626;8.978;2022-12-11T08:18:46;-2.80;99.90
27026;DHT22;14565;48.626;8.978;2022-12-11T08:21:14;-2.60;99.90
27026;DHT22;14565;48.626;8.978;2022-12-11T08:23:40;-2.60;99.90
27026;DHT22;14565;48.626;8.978;2022-12-11T08:26:08;-2.60;99.90
27026;DHT22;14565;48.626;8.978;2022-12-11T08:28:35;-2.50;99.90
27026;DHT22;14565;48.626;8.978;2022-12-11T08:31:06;-2.40;99.90
27026;DHT22;14565;48.626;8.978;2022-12-11T08:33:33;-2.20;99.90
27026;DHT22;14565;48.626;8.978;2022-12-11T08:36:03;-2.00;99.90
27026;DHT22;14565;48.626;8.978;2022-12-11T08:38:29;-1.70;99.90
27026;DHT22;14565;48.626;8.978;2022-12-11T08:40:54;-1.90;99.90
27026;DHT22;14565;48.626;8.978;2022-12-11T08:43:20;-1.80;99.90
27026;DHT22;14565;48.626;8.978;2022-12-11T08:45:45;-1.80;99.90
27026;DHT22;14565;48.626;8.978;2022-12-11T08:48:11;-1.60;99.90
27026;DHT22;14565;48.626;8.978;2022-12-11T08:50:37;-1.60;99.90
27026;DHT22;14565;48.626;8.978;2022-12-11T08:53:02;-1.70;99.90
27026;DHT22;14565;48.626;8.978;2022-12-11T08:55:28;-1.70;99.90
27026;DHT22;14565;48.626;8.978;2022-12-11T08:57:54;-1.70;99.90
27026;DHT22;14565;48.626;8.978;2022-12-11T09:00:21;-1.80;99.90
27026;DHT22;14565;48.626;8.978;2022-12-11T09:02:47;-1.80;99.90
27026;DHT22;14565;48.626;8.978;2022-12-11T09:05:12;-1.70;99.90
27026;DHT22;14565;48.626;8.978;2022-12-11T09:07:38;-1.60;99.90
27026;DHT22;14565;48.626;8.978;2022-12-11T09:10:05;-1.50;99.90
27026;DHT22;14565;48.626;8.978;2022-12-11T09:12:32;-1.50;99.90
27026;DHT22;14565;48.626;8.978;2022-12-11T09:14:58;-1.40;99.90
27026;DHT22;14565;48.626;8.978;2022-12-11T09:17:24;-1.40;99.90
27026;DHT22;14565;48.626;8.978;2022-12-11T09:19:50;-1.40;99.90
27026;DHT22;14565;48.626;8.978;2022-12-11T09:22:16;-1.20;99.90
27026;DHT22;14565;48.626;8.978;2022-12-11T09:24:41;-1.20;99.90
27026;DHT22;14565;48.626;8.978;2022-12-11T09:27:07;-1.10;99.90
27026;DHT22;14565;48.626;8.978;2022-12-11T09:29:33;-1.30;99.90
27026;DHT22;14565;48.626;8.978;2022-12-11T09:31:58;-1.10;99.90
27026;DHT22;14565;48.626;8.978;2022-12-11T09:34:24;-1.10;99.90
27026;DHT22;14565;48.626;8.978;2022-12-11T09:36:50;-1.10;99.90
27026;DHT22;14565;48.626;8.978;2022-12-11T09:39:16;-1.00;99.90
27026;DHT22;14565;48.626;8.978;2022-12-11T09:44:51;-1.20;99.90
27026;DHT22;14565;48.626;8.978;2022-12-11T10:04:17;-1.10;99.90
27026;DHT22;14565;48.626;8.978;2022-12-11T10:07:29;-1.00;99.90
27026;DHT22;14565;48.626;8.978;2022-12-11T10:17:36;-0.90;99.90
27026;DHT22;14565;48.626;8.978;2022-12-11T10:20:48;-0.70;99.90
27026;DHT22;14565;48.626;8.978;2022-12-11T10:22:49;-0.90;99.90
27026;DHT22;14565;48.626;8.978;2022-12-11T10:27:46;-0.70;99.90
27026;DHT22;14565;48.626;8.978;2022-12-11T10:35:19;-0.50;99.90
27026;DHT22;14565;48.626;8.978;2022-12-11T10:37:50;-0.20;99.90
27026;DHT22;14565;48.626;8.978;2022-12-11T10:40:17;-0.30;99.90
27026;DHT22;14565;48.626;8.978;2022-12-11T10:42:54;-0.50;99.90
27026;DHT22;14565;48.626;8.978;2022-12-11T10:45:20;-0.50;99.90
27026;DHT22;14565;48.626;8.978;2022-12-11T10:47:45;-0.50;99.90
27026;DHT22;14565;48.626;8.978;2022-12-11T10:50:23;-0.40;99.90
27026;DHT22;14565;48.626;8.978;2022-12-11T10:52:49;-0.30;99.90
27026;DHT22;14565;48.626;8.978;2022-12-11T10:55:20;-0.20;99.90
27026;DHT22;14565;48.626;8.978;2022-12-11T10:57:57;-0.10;99.90
27026;DHT22;14565;48.626;8.978;2022-12-11T11:02:58;-0.10;99.90
27026;DHT22;14565;48.626;8.978;2022-12-11T11:05:35;-0.40;99.90
27026;DHT22;14565;48.626;8.978;2022-12-11T11:10:59;-0.20;99.90
27026;DHT22;14565;48.626;8.978;2022-12-11T11:13:30;-0.10;99.90
27026;DHT22;14565;48.626;8.978;2022-12-11T11:16:10;0.00;99.90
27026;DHT22;14565;48.626;8.978;2022-12-11T11:18:37;-0.10;99.90
27026;DHT22;14565;48.626;8.978;2022-12-11T11:21:04;-0.10;99.90
27026;DHT22;14565;48.626;8.978;2022-12-11T11:23:30;-0.20;99.90
27026;DHT22;14565;48.626;8.978;2022-12-11T11:25:58;-0.10;99.90
27026;DHT22;14565;48.626;8.978;2022-12-11T11:33:33;0.20;99.90
27026;DHT22;14565;48.626;8.978;2022-12-11T11:36:03;0.30;99.90
27026;DHT22;14565;48.626;8.978;2022-12-11T11:46:26;0.20;99.90
27026;DHT22;14565;48.626;8.978;2022-12-11T11:49:05;0.20;99.90
27026;DHT22;14565;48.626;8.978;2022-12-11T11:54:19;0.30;99.90
27026;DHT22;14565;48.626;8.978;2022-12-11T11:56:50;0.20;99.90
27026;DHT22;14565;48.626;8.978;2022-12-11T12:01:45;0.10;99.90
27026;DHT22;14565;48.626;8.978;2022-12-11T12:04:12;0.10;99.90
27026;DHT22;14565;48.626;8.978;2022-12-11T12:20:46;-0.10;99.90
27026;DHT22;14565;48.626;8.978;2022-12-11T12:26:16;0.10;99.90
27026;DHT22;14565;48.626;8.978;2022-12-11T12:47:33;0.40;99.90
27026;DHT22;14565;48.626;8.978;2022-12-11T12:50:00;0.40;99.90
27026;DHT22;14565;48.626;8.978;2022-12-11T12:52:35;0.40;99.90
27026;DHT22;14565;48.626;8.978;2022-12-11T12:55:25;0.30;99.90
27026;DHT22;14565;48.626;8.978;2022-12-11T13:02:55;0.10;99.90
27026;DHT22;14565;48.626;8.978;2022-12-11T13:05:24;0.10;99.90
27026;DHT22;14565;48.626;8.978;2022-12-11T13:07:54;0.00;99.90
27026;DHT22;14565;48.626;8.978;2022-12-11T13:10:41;0.10;99.90
27026;DHT22;14565;48.626;8.978;2022-12-11T13:13:29;-0.10;99.90
27026;DHT22;14565;48.626;8.978;2022-12-11T13:16:05;-0.10;99.90
27026;DHT22;14565;48.626;8.978;2022-12-11T13:18:32;0.00;99.90
27026;DHT22;14565;48.626;8.978;2022-12-11T13:20:59;0.00;99.90
27026;DHT22;14565;48.626;8.978;2022-12-11T13:23:33;0.10;99.90
27026;DHT22;14565;48.626;8.978;2022-12-11T13:26:03;0.20;99.90
27026;DHT22;14565;48.626;8.978;2022-12-11T13:33:28;0.10;99.90
27026;DHT22;14565;48.626;8.978;2022-12-11T13:39:00;0.30;99.90
27026;DHT22;14565;48.626;8.978;2022-12-11T13:41:27;0.20;99.90
27026;DHT22;14565;48.626;8.978;2022-12-11T13:43:53;0.30;99.90
27026;DHT22;14565;48.626;8.978;2022-12-11T13:46:29;0.20;99.90
27026;DHT22;14565;48.626;8.978;2022-12-11T13:49:01;0.10;99.90
27026;DHT22;14565;48.626;8.978;2022-12-11T13:51:30;0.10;99.90
27026;DHT22;14565;48.626;8.978;2022-12-11T13:54:16;0.10;99.90
27026;DHT22;14565;48.626;8.978;2022-12-11T13:56:56;0.10;99.90
27026;DHT22;14565;48.626;8.978;2022-12-11T13:59:49;0.10;99.90
27026;DHT22;14565;48.626;8.978;2022-12-11T14:02:31;0.00;99.90
27026;DHT22;14565;48.626;8.978;2022-12-11T14:05:02;0.10;99.90
27026;DHT22;14565;48.626;8.978;2022-12-11T14:07:34;0.00;99.90
27026;DHT22;14565;48.626;8.978;2022-12-11T14:10:05;0.00;99.90
27026;DHT22;14565;48.626;8.978;2022-12-11T14:12:32;-0.10;99.90
27026;DHT22;14565;48.626;8.978;2022-12-11T14:14:59;-0.10;99.90
27026;DHT22;14565;48.626;8.978;2022-12-11T14:17:31;0.00;99.90
27026;DHT22;14565;48.626;8.978;2022-12-11T14:20:00;-0.10;99.90
27026;DHT22;14565;48.626;8.978;2022-12-11T14:22:28;-0.10;99.90
27026;DHT22;14565;48.626;8.978;2022-12-11T14:24:59;-0.10;99.90
27026;DHT22;14565;48.626;8.978;2022-12-11T14:27:26;-0.20;99.90
27026;DHT22;14565;48.626;8.978;2022-12-11T14:29:52;-0.20;99.90
27026;DHT22;14565;48.626;8.978;2022-12-11T14:34:57;-0.20;99.90
27026;DHT22;14565;48.626;8.978;2022-12-11T14:37:23;-0.30;99.90
27026;DHT22;14565;48.626;8.978;2022-12-11T14:39:59;-0.30;99.90
27026;DHT22;14565;48.626;8.978;2022-12-11T14:42:35;-0.30;99.90
27026;DHT22;14565;48.626;8.978;2022-12-11T14:45:23;-0.30;99.90
27026;DHT22;14565;48.626;8.978;2022-12-11T14:47:54;-0.20;99.90
27026;DHT22;14565;48.626;8.978;2022-12-11T14:50:26;-0.20;99.90
27026;DHT22;14565;48.626;8.978;2022-12-11T14:52:59;-0.10;99.90
27026;DHT22;14565;48.626;8.978;2022-12-11T14:55:32;-0.20;99.90
27026;DHT22;14565;48.626;8.978;2022-12-11T14:58:21;-0.40;99.90
27026;DHT22;14565;48.626;8.978;2022-12-11T15:01:05;-0.30;99.90
27026;DHT22;14565;48.626;8.978;2022-12-11T15:03:34;-0.40;99.90
27026;DHT22;14565;48.626;8.978;2022-12-11T15:06:00;-0.30;99.90
27026;DHT22;14565;48.626;8.978;2022-12-11T15:08:27;-0.40;99.90
27026;DHT22;14565;48.626;8.978;2022-12-11T15:11:14;-0.40;99.90
27026;DHT22;14565;48.626;8.978;2022-12-11T15:13:56;-0.40;99.90
27026;DHT22;14565;48.626;8.978;2022-12-11T15:16:24;-0.50;99.90
27026;DHT22;14565;48.626;8.978;2022-12-11T15:18:52;-0.50;99.90
27026;DHT22;14565;48.626;8.978;2022-12-11T15:21:18;-0.50;99.90
27026;DHT22;14565;48.626;8.978;2022-12-11T15:26:20;-0.60;99.90
27026;DHT22;14565;48.626;8.978;2022-12-11T15:29:01;-0.60;99.90
27026;DHT22;14565;48.626;8.978;2022-12-11T15:31:35;-0.70;99.90
27026;DHT22;14565;48.626;8.978;2022-12-11T15:34:01;-0.60;99.90
27026;DHT22;14565;48.626;8.978;2022-12-11T15:36:31;-0.70;99.90
27026;DHT22;14565;48.626;8.978;2022-12-11T15:38:58;-0.70;99.90
27026;DHT22;14565;48.626;8.978;2022-12-11T15:41:24;-0.70;99.90
27026;DHT22;14565;48.626;8.978;2022-12-11T15:43:56;-0.60;99.90
27026;DHT22;14565;48.626;8.978;2022-12-11T15:46:22;-0.80;99.90
27026;DHT22;14565;48.626;8.978;2022-12-11T15:48:48;-0.80;99.90
27026;DHT22;14565;48.626;8.978;2022-12-11T15:51:15;-0.90;99.90
27026;DHT22;14565;48.626;8.978;2022-12-11T15:53:41;-0.90;99.90
27026;DHT22;14565;48.626;8.978;2022-12-11T15:56:12;-0.90;99.90
27026;DHT22;14565;48.626;8.978;2022-12-11T15:58:39;-0.90;99.90
27026;DHT22;14565;48.626;8.978;2022-12-11T16:01:05;-0.70;99.90
27026;DHT22;14565;48.626;8.978;2022-12-11T16:03:31;-0.80;99.90
27026;DHT22;14565;48.626;8.978;2022-12-11T16:05:56;-1.00;99.90
27026;DHT22;14565;48.626;8.978;2022-12-11T16:08:22;-1.00;99.90
27026;DHT22;14565;48.626;8.978;2022-12-11T16:10:51;-1.00;99.90
27026;DHT22;14565;48.626;8.978;2022-12-11T16:13:17;-0.90;99.90
27026;DHT22;14565;48.626;8.978;2022-12-11T16:15:44;-1.00;99.90
27026;DHT22;14565;48.626;8.978;2022-12-11T16:18:13;-0.90;99.90
27026;DHT22;14565;48.626;8.978;2022-12-11T16:20:41;-0.90;99.90
27026;DHT22;14565;48.626;8.978;2022-12-11T16:23:07;-1.00;99.90
27026;DHT22;14565;48.626;8.978;2022-12-11T16:25:35;-1.10;99.90
27026;DHT22;14565;48.626;8.978;2022-12-11T16:28:01;-1.10;99.90
27026;DHT22;14565;48.626;8.978;2022-12-11T16:30:28;-1.20;99.90
27026;DHT22;14565;48.626;8.978;2022-12-11T16:32:54;-1.20;99.90
27026;DHT22;14565;48.626;8.978;2022-12-11T16:35:20;-1.20;99.90
27026;DHT22;14565;48.626;8.978;2022-12-11T16:37:51;-1.20;99.90
27026;DHT22;14565;48.626;8.978;2022-12-11T16:40:18;-1.20;99.90
27026;DHT22;14565;48.626;8.978;2022-12-11T16:42:44;-1.20;99.90
27026;DHT22;14565;48.626;8.978;2022-12-11T16:45:13;-1.20;99.90
27026;DHT22;14565;48.626;8.978;2022-12-11T16:47:40;-1.10;99.90
27026;DHT22;14565;48.626;8.978;2022-12-11T16:50:06;-1.30;99.90
27026;DHT22;14565;48.626;8.978;2022-12-11T16:52:32;-1.30;99.90
27026;DHT22;14565;48.626;8.978;2022-12-11T16:54:58;-1.10;99.90
27026;DHT22;14565;48.626;8.978;2022-12-11T16:57:24;-1.30;99.90
27026;DHT22;14565;48.626;8.978;2022-12-11T16:59:50;-1.30;99.90
27026;DHT22;14565;48.626;8.978;2022-12-11T17:02:16;-1.50;99.90
27026;DHT22;14565;48.626;8.978;2022-12-11T17:04:41;-1.30;99.90
27026;DHT22;14565;48.626;8.978;2022-12-11T17:07:07;-1.30;99.90
27026;DHT22;14565;48.626;8.978;2022-12-11T17:09:33;-1.50;99.90
27026;DHT22;14565;48.626;8.978;2022-12-11T17:12:00;-1.40;99.90
27026;DHT22;14565;48.626;8.978;2022-12-11T17:14:25;-1.40;99.90
27026;DHT22;14565;48.626;8.978;2022-12-11T17:16:51;-1.40;99.90
27026;DHT22;14565;48.626;8.978;2022-12-11T17:19:17;-1.50;99.90
27026;DHT22;14565;48.626;8.978;2022-12-11T17:21:43;-1.70;99.90
27026;DHT22;14565;48.626;8.978;2022-12-11T17:24:09;-1.70;99.90
27026;DHT22;14565;48.626;8.978;2022-12-11T17:26:35;-1.70;99.90
27026;DHT22;14565;48.626;8.978;2022-12-11T17:29:02;-1.60;99.90
27026;DHT22;14565;48.626;8.978;2022-12-11T17:31:27;-1.50;99.90
27026;DHT22;14565;48.626;8.978;2022-12-11T17:33:53;-1.60;99.90
27026;DHT22;14565;48.626;8.978;2022-12-11T17:36:20;-1.60;99.90
27026;DHT22;14565;48.626;8.978;2022-12-11T17:38:47;-1.70;99.90
27026;DHT22;14565;48.626;8.978;2022-12-11T17:41:15;-1.70;99.90
27026;DHT22;14565;48.626;8.978;2022-12-11T17:43:41;-1.80;99.90
27026;DHT22;14565;48.626;8.978;2022-12-11T17:46:09;-1.80;99.90
27026;DHT22;14565;48.626;8.978;2022-12-11T17:48:35;-1.90;99.90
27026;DHT22;14565;48.626;8.978;2022-12-11T17:51:07;-1.90;99.90